sensor_id;sensor_type;location;lat;lon;timestamp;pressure;altitude;pressure_sealevel;temperature;humidity
36192;BME280;22233;42.708;23.360;2023-11-22T00:00:09;94698.56;;;9.12;71.43
36192;BME280;22233;42.708;23.360;2023-11-22T00:02:35;94717.16;;;9.40;71.89
36192;BME280;22233;42.708;23.360;2023-11-22T00:05:01;94704.72;;;9.48;71.79
36192;BME280;22233;42.708;23.360;2023-11-22T00:07:26;94717.72;;;9.72;71.40
36192;BME280;22233;42.708;23.360;2023-11-22T00:09:55;94724.13;;;9.58;70.46
36192;BME280;22233;42.708;23.360;2023-11-22T00:12:21;94698.19;;;9.31;71.60
36192;BME280;22233;42.708;23.360;2023-11-22T00:14:48;94702.16;;;9.43;71.94
36192;BME280;22233;42.708;23.360;2023-11-22T00:17:14;94683.00;;;9.56;70.47
36192;BME280;22233;42.708;23.360;2023-11-22T00:19:39;94707.03;;;9.67;70.53
36192;BME280;22233;42.708;23.360;2023-11-22T00:22:05;94691.63;;;9.50;71.15
36192;BME280;22233;42.708;23.360;2023-11-22T00:24:38;94683.16;;;9.60;71.01
36192;BME280;22233;42.708;23.360;2023-11-22T00:27:04;94705.91;;;9.76;70.50
36192;BME280;22233;42.708;23.360;2023-11-22T00:29:30;94703.97;;;9.77;71.23
36192;BME280;22233;42.708;23.360;2023-11-22T00:31:55;94687.00;;;9.50;71.55
36192;BME280;22233;42.708;23.360;2023-11-22T00:34:21;94688.69;;;9.72;70.15
36192;BME280;22233;42.708;23.360;2023-11-22T00:36:48;94675.34;;;9.58;71.26
36192;BME280;22233;42.708;23.360;2023-11-22T00:39:14;94705.16;;;9.58;70.95
36192;BME280;22233;42.708;23.360;2023-11-22T00:41:39;94682.97;;;8.92;73.95
36192;BME280;22233;42.708;23.360;2023-11-22T00:44:05;94716.84;;;9.33;72.23
36192;BME280;22233;42.708;23.360;2023-11-22T00:46:33;94703.28;;;9.33;71.84
36192;BME280;22233;42.708;23.360;2023-11-22T00:48:59;94702.16;;;9.43;71.78
36192;BME280;22233;42.708;23.360;2023-11-22T00:51:24;94700.97;;;9.70;71.02
36192;BME280;22233;42.708;23.360;2023-11-22T00:53:50;94699.63;;;9.29;72.58
36192;BME280;22233;42.708;23.360;2023-11-22T00:56:16;94700.78;;;9.10;73.37
36192;BME280;22233;42.708;23.360;2023-11-22T00:58:41;94694.19;;;9.46;71.96
36192;BME280;22233;42.708;23.360;2023-11-22T01:01:07;94698.44;;;9.65;71.69
36192;BME280;22233;42.708;23.360;2023-11-22T01:03:32;94692.81;;;9.78;70.78
36192;BME280;22233;42.708;23.360;2023-11-22T01:05:58;94679.97;;;9.96;70.87
36192;BME280;22233;42.708;23.360;2023-11-22T01:08:23;94680.38;;;10.07;69.86
36192;BME280;22233;42.708;23.360;2023-11-22T01:10:49;94682.22;;;9.94;70.15
36192;BME280;22233;42.708;23.360;2023-11-22T01:13:14;94690.84;;;9.88;70.12
36192;BME280;22233;42.708;23.360;2023-11-22T01:15:41;94670.38;;;9.60;70.79
36192;BME280;22233;42.708;23.360;2023-11-22T01:18:07;94680.59;;;10.02;69.94
36192;BME280;22233;42.708;23.360;2023-11-22T01:20:32;94662.66;;;10.10;69.93
36192;BME280;22233;42.708;23.360;2023-11-22T01:22:57;94660.69;;;10.19;69.54
36192;BME280;22233;42.708;23.360;2023-11-22T01:25:23;94644.78;;;9.79;70.79
36192;BME280;22233;42.708;23.360;2023-11-22T01:27:48;94671.72;;;9.84;70.89
36192;BME280;22233;42.708;23.360;2023-11-22T01:30:13;94671.31;;;9.65;71.31
36192;BME280;22233;42.708;23.360;2023-11-22T01:32:40;94668.56;;;9.82;70.97
36192;BME280;22233;42.708;23.360;2023-11-22T01:35:05;94662.28;;;9.90;70.40
36192;BME280;22233;42.708;23.360;2023-11-22T01:37:31;94651.47;;;9.82;69.95
36192;BME280;22233;42.708;23.360;2023-11-22T01:39:57;94620.09;;;9.72;71.02
36192;BME280;22233;42.708;23.360;2023-11-22T01:42:23;94645.78;;;10.04;70.14
36192;BME280;22233;42.708;23.360;2023-11-22T01:44:51;94648.75;;;9.82;71.08
36192;BME280;22233;42.708;23.360;2023-11-22T01:47:17;94627.72;;;9.70;71.57
36192;BME280;22233;42.708;23.360;2023-11-22T01:49:42;94636.97;;;9.77;72.01
36192;BME280;22233;42.708;23.360;2023-11-22T01:52:08;94626.22;;;9.60;72.17
36192;BME280;22233;42.708;23.360;2023-11-22T01:54:34;94631.69;;;9.81;71.34
36192;BME280;22233;42.708;23.360;2023-11-22T01:56:59;94653.56;;;9.76;71.50
36192;BME280;22233;42.708;23.360;2023-11-22T01:59:27;94635.03;;;9.39;71.63
36192;BME280;22233;42.708;23.360;2023-11-22T02:01:55;94648.50;;;9.66;71.31
36192;BME280;22233;42.708;23.360;2023-11-22T02:04:21;94652.88;;;9.88;70.38
36192;BME280;22233;42.708;23.360;2023-11-22T02:06:47;94636.22;;;9.68;71.09
36192;BME280;22233;42.708;23.360;2023-11-22T02:09:12;94626.72;;;9.45;70.75
36192;BME280;22233;42.708;23.360;2023-11-22T02:11:41;94637.44;;;9.41;71.58
36192;BME280;22233;42.708;23.360;2023-11-22T02:14:08;94622.19;;;9.19;72.03
36192;BME280;22233;42.708;23.360;2023-11-22T02:16:34;94628.34;;;9.46;71.12
36192;BME280;22233;42.708;23.360;2023-11-22T02:19:00;94620.28;;;9.19;72.16
36192;BME280;22233;42.708;23.360;2023-11-22T02:21:25;94627.13;;;9.17;72.85
36192;BME280;22233;42.708;23.360;2023-11-22T02:23:51;94637.31;;;9.29;72.08
36192;BME280;22233;42.708;23.360;2023-11-22T02:26:16;94630.06;;;9.50;71.28
36192;BME280;22233;42.708;23.360;2023-11-22T02:28:43;94631.78;;;9.55;71.19
36192;BME280;22233;42.708;23.360;2023-11-22T02:31:09;94609.13;;;9.59;71.08
36192;BME280;22233;42.708;23.360;2023-11-22T02:33:35;94620.25;;;9.67;69.94
36192;BME280;22233;42.708;23.360;2023-11-22T02:36:01;94643.91;;;9.57;70.61
36192;BME280;22233;42.708;23.360;2023-11-22T02:38:29;94640.09;;;9.58;70.79
36192;BME280;22233;42.708;23.360;2023-11-22T02:40:55;94639.31;;;9.49;70.92
36192;BME280;22233;42.708;23.360;2023-11-22T02:43:20;94628.03;;;9.38;70.84
36192;BME280;22233;42.708;23.360;2023-11-22T02:45:48;94626.06;;;9.56;71.24
36192;BME280;22233;42.708;23.360;2023-11-22T02:48:13;94619.50;;;9.57;70.68
36192;BME280;22233;42.708;23.360;2023-11-22T02:50:39;94637.38;;;9.58;70.76
36192;BME280;22233;42.708;23.360;2023-11-22T02:53:04;94632.59;;;9.55;70.49
36192;BME280;22233;42.708;23.360;2023-11-22T02:55:30;94619.31;;;9.63;70.67
36192;BME280;22233;42.708;23.360;2023-11-22T02:57:55;94623.69;;;9.85;70.24
36192;BME280;22233;42.708;23.360;2023-11-22T03:00:21;94625.00;;;9.78;69.88
36192;BME280;22233;42.708;23.360;2023-11-22T03:02:47;94615.81;;;9.92;69.56
36192;BME280;22233;42.708;23.360;2023-11-22T03:05:13;94641.66;;;9.98;69.78
36192;BME280;22233;42.708;23.360;2023-11-22T03:07:40;94636.19;;;10.07;69.34
36192;BME280;22233;42.708;23.360;2023-11-22T03:10:07;94624.31;;;9.90;68.76
36192;BME280;22233;42.708;23.360;2023-11-22T03:12:33;94636.25;;;10.19;68.87
36192;BME280;22233;42.708;23.360;2023-11-22T03:14:59;94640.69;;;10.32;68.90
36192;BME280;22233;42.708;23.360;2023-11-22T03:17:27;94643.94;;;10.17;68.64
36192;BME280;22233;42.708;23.360;2023-11-22T03:19:54;94643.38;;;10.03;69.15
36192;BME280;22233;42.708;23.360;2023-11-22T03:22:22;94647.13;;;9.89;69.01
36192;BME280;22233;42.708;23.360;2023-11-22T03:24:49;94650.13;;;9.96;69.49
36192;BME280;22233;42.708;23.360;2023-11-22T03:27:14;94645.81;;;10.25;68.63
36192;BME280;22233;42.708;23.360;2023-11-22T03:29:40;94654.59;;;10.22;68.21
36192;BME280;22233;42.708;23.360;2023-11-22T03:32:06;94654.97;;;10.12;68.49
36192;BME280;22233;42.708;23.360;2023-11-22T03:34:31;94647.59;;;9.91;69.29
36192;BME280;22233;42.708;23.360;2023-11-22T03:36:57;94638.81;;;9.94;69.02
36192;BME280;22233;42.708;23.360;2023-11-22T03:39:22;94653.16;;;9.95;69.87
36192;BME280;22233;42.708;23.360;2023-11-22T03:41:48;94652.22;;;10.20;69.27
36192;BME280;22233;42.708;23.360;2023-11-22T03:44:13;94622.16;;;10.26;68.33
36192;BME280;22233;42.708;23.360;2023-11-22T03:46:39;94635.50;;;10.39;68.13
36192;BME280;22233;42.708;23.360;2023-11-22T03:49:05;94634.00;;;10.51;68.20
36192;BME280;22233;42.708;23.360;2023-11-22T03:51:38;94641.34;;;10.50;67.71
36192;BME280;22233;42.708;23.360;2023-11-22T03:54:03;94636.72;;;10.51;68.41
36192;BME280;22233;42.708;23.360;2023-11-22T03:56:29;94640.75;;;10.45;67.81
36192;BME280;22233;42.708;23.360;2023-11-22T03:58:55;94622.25;;;10.38;68.61
36192;BME280;22233;42.708;23.360;2023-11-22T04:01:21;94640.03;;;10.56;67.83
36192;BME280;22233;42.708;23.360;2023-11-22T04:03:47;94645.66;;;10.51;68.95
36192;BME280;22233;42.708;23.360;2023-11-22T04:06:18;94652.72;;;10.14;69.10
36192;BME280;22233;42.708;23.360;2023-11-22T04:08:48;94631.63;;;10.19;68.48
36192;BME280;22233;42.708;23.360;2023-11-22T04:11:13;94639.28;;;9.96;69.31
36192;BME280;22233;42.708;23.360;2023-11-22T04:13:39;94666.97;;;10.11;69.47
36192;BME280;22233;42.708;23.360;2023-11-22T04:16:06;94668.19;;;9.92;69.95
36192;BME280;22233;42.708;23.360;2023-11-22T04:18:34;94680.69;;;10.14;68.89
36192;BME280;22233;42.708;23.360;2023-11-22T04:21:01;94677.16;;;10.14;69.05
36192;BME280;22233;42.708;23.360;2023-11-22T04:23:28;94672.53;;;9.85;69.56
36192;BME280;22233;42.708;23.360;2023-11-22T04:25:53;94676.75;;;9.65;70.48
36192;BME280;22233;42.708;23.360;2023-11-22T04:28:19;94695.22;;;10.10;69.23
36192;BME280;22233;42.708;23.360;2023-11-22T04:30:44;94691.94;;;9.95;69.51
36192;BME280;22233;42.708;23.360;2023-11-22T04:33:09;94680.44;;;9.98;69.54
36192;BME280;22233;42.708;23.360;2023-11-22T04:35:36;94676.31;;;9.92;69.46
36192;BME280;22233;42.708;23.360;2023-11-22T04:38:04;94703.03;;;10.11;69.28
36192;BME280;22233;42.708;23.360;2023-11-22T04:40:30;94700.97;;;10.08;68.97
36192;BME280;22233;42.708;23.360;2023-11-22T04:42:55;94689.22;;;9.95;68.71
36192;BME280;22233;42.708;23.360;2023-11-22T04:45:21;94688.63;;;10.19;68.22
36192;BME280;22233;42.708;23.360;2023-11-22T04:47:46;94696.41;;;9.91;68.90
36192;BME280;22233;42.708;23.360;2023-11-22T04:50:12;94698.50;;;9.86;69.26
36192;BME280;22233;42.708;23.360;2023-11-22T04:52:38;94693.44;;;10.14;69.23
36192;BME280;22233;42.708;23.360;2023-11-22T04:55:05;94698.22;;;10.17;69.05
36192;BME280;22233;42.708;23.360;2023-11-22T04:57:30;94711.72;;;10.26;68.14
36192;BME280;22233;42.708;23.360;2023-11-22T04:59:56;94723.34;;;10.05;67.98
36192;BME280;22233;42.708;23.360;2023-11-22T05:02:21;94737.53;;;10.11;68.34
36192;BME280;22233;42.708;23.360;2023-11-22T05:04:46;94737.44;;;10.28;69.57
36192;BME280;22233;42.708;23.360;2023-11-22T05:07:17;94736.38;;;10.12;68.70
36192;BME280;22233;42.708;23.360;2023-11-22T05:09:44;94750.84;;;10.33;68.53
36192;BME280;22233;42.708;23.360;2023-11-22T05:12:09;94740.06;;;10.46;68.13
36192;BME280;22233;42.708;23.360;2023-11-22T05:14:36;94754.84;;;10.27;68.85
36192;BME280;22233;42.708;23.360;2023-11-22T05:17:01;94747.38;;;10.15;69.19
36192;BME280;22233;42.708;23.360;2023-11-22T05:19:27;94744.72;;;10.07;68.38
36192;BME280;22233;42.708;23.360;2023-11-22T05:21:52;94754.84;;;10.27;69.56
36192;BME280;22233;42.708;23.360;2023-11-22T05:24:17;94750.38;;;10.31;68.82
36192;BME280;22233;42.708;23.360;2023-11-22T05:26:43;94771.09;;;10.45;68.05
36192;BME280;22233;42.708;23.360;2023-11-22T05:29:08;94768.09;;;10.67;67.45
36192;BME280;22233;42.708;23.360;2023-11-22T05:31:34;94771.91;;;10.66;68.64
36192;BME280;22233;42.708;23.360;2023-11-22T05:34:00;94777.91;;;10.51;68.67
36192;BME280;22233;42.708;23.360;2023-11-22T05:36:25;94782.13;;;10.39;68.63
36192;BME280;22233;42.708;23.360;2023-11-22T05:38:50;94783.53;;;10.46;68.75
36192;BME280;22233;42.708;23.360;2023-11-22T05:41:16;94787.28;;;10.62;68.62
36192;BME280;22233;42.708;23.360;2023-11-22T05:43:41;94788.69;;;10.38;68.76
36192;BME280;22233;42.708;23.360;2023-11-22T05:46:08;94806.09;;;10.37;68.51
36192;BME280;22233;42.708;23.360;2023-11-22T05:48:33;94802.69;;;10.49;68.45
36192;BME280;22233;42.708;23.360;2023-11-22T05:50:59;94802.91;;;10.35;69.10
36192;BME280;22233;42.708;23.360;2023-11-22T05:53:25;94797.09;;;10.46;69.97
36192;BME280;22233;42.708;23.360;2023-11-22T05:55:51;94798.50;;;10.52;68.76
36192;BME280;22233;42.708;23.360;2023-11-22T05:58:18;94808.53;;;10.60;68.48
36192;BME280;22233;42.708;23.360;2023-11-22T06:00:44;94814.78;;;10.61;68.69
36192;BME280;22233;42.708;23.360;2023-11-22T06:03:10;94816.31;;;10.41;70.35
36192;BME280;22233;42.708;23.360;2023-11-22T06:05:36;94801.06;;;10.57;69.66
36192;BME280;22233;42.708;23.360;2023-11-22T06:08:01;94812.00;;;10.69;70.78
36192;BME280;22233;42.708;23.360;2023-11-22T06:10:26;94831.81;;;10.70;69.76
36192;BME280;22233;42.708;23.360;2023-11-22T06:12:52;94828.25;;;9.92;71.77
36192;BME280;22233;42.708;23.360;2023-11-22T06:15:17;94823.88;;;10.09;72.21
36192;BME280;22233;42.708;23.360;2023-11-22T06:17:46;94828.38;;;10.05;70.89
36192;BME280;22233;42.708;23.360;2023-11-22T06:20:12;94830.06;;;10.35;69.50
36192;BME280;22233;42.708;23.360;2023-11-22T06:22:37;94845.28;;;10.57;69.57
36192;BME280;22233;42.708;23.360;2023-11-22T06:25:09;94836.16;;;10.32;70.21
36192;BME280;22233;42.708;23.360;2023-11-22T06:27:36;94847.50;;;10.64;79.31
36192;BME280;22233;42.708;23.360;2023-11-22T06:30:01;94854.34;;;11.00;72.66
36192;BME280;22233;42.708;23.360;2023-11-22T06:32:28;94857.16;;;10.53;69.77
36192;BME280;22233;42.708;23.360;2023-11-22T06:34:54;94851.19;;;10.04;71.41
36192;BME280;22233;42.708;23.360;2023-11-22T06:37:19;94843.31;;;10.37;70.71
36192;BME280;22233;42.708;23.360;2023-11-22T06:39:46;94854.34;;;10.70;69.68
36192;BME280;22233;42.708;23.360;2023-11-22T06:42:11;94835.63;;;10.77;69.43
36192;BME280;22233;42.708;23.360;2023-11-22T06:44:36;94848.19;;;10.91;69.45
36192;BME280;22233;42.708;23.360;2023-11-22T06:47:02;94864.56;;;10.17;72.09
36192;BME280;22233;42.708;23.360;2023-11-22T06:49:27;94868.25;;;10.13;71.74
36192;BME280;22233;42.708;23.360;2023-11-22T06:51:53;94873.38;;;10.14;71.80
36192;BME280;22233;42.708;23.360;2023-11-22T06:54:19;94866.78;;;10.33;71.27
36192;BME280;22233;42.708;23.360;2023-11-22T06:56:45;94881.16;;;10.25;71.65
36192;BME280;22233;42.708;23.360;2023-11-22T06:59:11;94876.69;;;10.37;70.36
36192;BME280;22233;42.708;23.360;2023-11-22T07:01:36;94877.88;;;10.57;70.89
36192;BME280;22233;42.708;23.360;2023-11-22T07:04:02;94852.66;;;10.57;69.83
36192;BME280;22233;42.708;23.360;2023-11-22T07:06:29;94890.47;;;10.71;69.26
36192;BME280;22233;42.708;23.360;2023-11-22T07:08:54;94888.22;;;10.73;69.39
36192;BME280;22233;42.708;23.360;2023-11-22T07:11:24;94868.13;;;10.95;69.92
36192;BME280;22233;42.708;23.360;2023-11-22T07:13:49;94886.84;;;10.88;69.22
36192;BME280;22233;42.708;23.360;2023-11-22T07:16:15;94897.41;;;10.89;69.64
36192;BME280;22233;42.708;23.360;2023-11-22T07:18:40;94901.13;;;10.85;69.55
36192;BME280;22233;42.708;23.360;2023-11-22T07:21:06;94896.53;;;10.68;68.82
36192;BME280;22233;42.708;23.360;2023-11-22T07:23:31;94900.66;;;10.83;69.36
36192;BME280;22233;42.708;23.360;2023-11-22T07:25:57;94888.03;;;10.78;69.43
36192;BME280;22233;42.708;23.360;2023-11-22T07:28:22;94899.28;;;10.97;69.73
36192;BME280;22233;42.708;23.360;2023-11-22T07:30:48;94873.00;;;10.81;69.77
36192;BME280;22233;42.708;23.360;2023-11-22T07:33:14;94901.69;;;10.90;69.55
36192;BME280;22233;42.708;23.360;2023-11-22T07:35:40;94893.56;;;10.90;68.59
36192;BME280;22233;42.708;23.360;2023-11-22T07:38:06;94892.13;;;10.46;70.91
36192;BME280;22233;42.708;23.360;2023-11-22T07:40:34;94911.75;;;10.60;71.13
36192;BME280;22233;42.708;23.360;2023-11-22T07:42:59;94917.78;;;10.66;70.65
36192;BME280;22233;42.708;23.360;2023-11-22T07:45:25;94889.97;;;10.30;71.50
36192;BME280;22233;42.708;23.360;2023-11-22T07:47:50;94912.97;;;9.89;73.31
36192;BME280;22233;42.708;23.360;2023-11-22T07:50:18;94922.69;;;10.08;73.22
36192;BME280;22233;42.708;23.360;2023-11-22T07:52:45;94915.50;;;10.20;72.81
36192;BME280;22233;42.708;23.360;2023-11-22T07:55:11;94903.06;;;9.93;72.47
36192;BME280;22233;42.708;23.360;2023-11-22T07:57:39;94926.19;;;10.17;72.72
36192;BME280;22233;42.708;23.360;2023-11-22T08:00:06;94914.84;;;10.24;72.03
36192;BME280;22233;42.708;23.360;2023-11-22T08:02:34;94931.63;;;10.34;73.17
36192;BME280;22233;42.708;23.360;2023-11-22T08:04:59;94931.44;;;10.22;73.18
36192;BME280;22233;42.708;23.360;2023-11-22T08:07:27;94929.22;;;10.50;71.99
36192;BME280;22233;42.708;23.360;2023-11-22T08:09:53;94925.00;;;10.62;72.46
36192;BME280;22233;42.708;23.360;2023-11-22T08:12:19;94911.78;;;10.51;72.53
36192;BME280;22233;42.708;23.360;2023-11-22T08:14:44;94911.03;;;10.33;73.10
36192;BME280;22233;42.708;23.360;2023-11-22T08:17:10;94924.91;;;10.32;74.52
36192;BME280;22233;42.708;23.360;2023-11-22T08:19:39;94928.91;;;10.43;73.78
36192;BME280;22233;42.708;23.360;2023-11-22T08:22:05;94935.06;;;10.61;73.47
36192;BME280;22233;42.708;23.360;2023-11-22T08:24:31;94939.78;;;10.82;73.16
36192;BME280;22233;42.708;23.360;2023-11-22T08:26:57;94943.97;;;10.70;73.43
36192;BME280;22233;42.708;23.360;2023-11-22T08:29:23;94920.94;;;10.76;72.58
36192;BME280;22233;42.708;23.360;2023-11-22T08:31:49;94941.72;;;10.81;72.68
36192;BME280;22233;42.708;23.360;2023-11-22T08:34:16;94941.50;;;10.95;71.89
36192;BME280;22233;42.708;23.360;2023-11-22T08:36:42;94934.81;;;10.84;72.51
36192;BME280;22233;42.708;23.360;2023-11-22T08:39:09;94948.72;;;10.91;72.09
36192;BME280;22233;42.708;23.360;2023-11-22T08:41:34;94950.03;;;10.85;72.04
36192;BME280;22233;42.708;23.360;2023-11-22T08:44:01;94953.81;;;10.92;72.52
36192;BME280;22233;42.708;23.360;2023-11-22T08:46:26;94936.06;;;10.95;72.34
36192;BME280;22233;42.708;23.360;2023-11-22T08:48:52;94954.47;;;10.89;72.08
36192;BME280;22233;42.708;23.360;2023-11-22T08:51:19;94962.91;;;10.96;72.76
36192;BME280;22233;42.708;23.360;2023-11-22T08:53:44;94953.00;;;10.92;72.46
36192;BME280;22233;42.708;23.360;2023-11-22T08:56:10;94941.09;;;11.14;72.09
36192;BME280;22233;42.708;23.360;2023-11-22T08:58:37;94952.38;;;11.25;72.22
36192;BME280;22233;42.708;23.360;2023-11-22T09:01:04;94959.41;;;11.26;72.14
36192;BME280;22233;42.708;23.360;2023-11-22T09:03:31;94955.50;;;11.06;72.62
36192;BME280;22233;42.708;23.360;2023-11-22T09:05:58;94937.78;;;10.61;73.79
36192;BME280;22233;42.708;23.360;2023-11-22T09:08:23;94967.22;;;10.97;73.88
36192;BME280;22233;42.708;23.360;2023-11-22T09:10:48;94954.56;;;10.63;73.90
36192;BME280;22233;42.708;23.360;2023-11-22T09:13:16;94974.28;;;10.90;73.85
36192;BME280;22233;42.708;23.360;2023-11-22T09:15:42;94969.38;;;10.74;73.64
36192;BME280;22233;42.708;23.360;2023-11-22T09:18:10;94957.16;;;10.51;74.85
36192;BME280;22233;42.708;23.360;2023-11-22T09:20:35;94961.75;;;10.59;75.04
36192;BME280;22233;42.708;23.360;2023-11-22T09:23:01;94973.91;;;10.53;75.43
36192;BME280;22233;42.708;23.360;2023-11-22T09:25:27;94984.94;;;10.48;75.24
36192;BME280;22233;42.708;23.360;2023-11-22T09:27:57;94992.75;;;10.58;74.68
36192;BME280;22233;42.708;23.360;2023-11-22T09:30:29;94960.19;;;10.49;74.57
36192;BME280;22233;42.708;23.360;2023-11-22T09:33:05;94971.63;;;10.72;73.94
36192;BME280;22233;42.708;23.360;2023-11-22T09:35:31;94966.72;;;11.04;73.84
36192;BME280;22233;42.708;23.360;2023-11-22T09:38:00;94970.47;;;10.91;73.60
36192;BME280;22233;42.708;23.360;2023-11-22T09:40:27;94987.25;;;11.23;72.69
36192;BME280;22233;42.708;23.360;2023-11-22T09:42:54;94989.28;;;10.96;73.19
36192;BME280;22233;42.708;23.360;2023-11-22T09:45:21;94990.63;;;11.19;73.19
36192;BME280;22233;42.708;23.360;2023-11-22T09:47:47;94989.00;;;11.27;72.93
36192;BME280;22233;42.708;23.360;2023-11-22T09:50:38;94992.75;;;11.44;71.28
36192;BME280;22233;42.708;23.360;2023-11-22T09:53:11;94999.91;;;11.48;71.27
36192;BME280;22233;42.708;23.360;2023-11-22T09:55:38;94980.69;;;11.24;72.38
36192;BME280;22233;42.708;23.360;2023-11-22T09:58:08;94973.19;;;11.50;71.34
36192;BME280;22233;42.708;23.360;2023-11-22T10:00:35;94977.31;;;11.56;71.34
36192;BME280;22233;42.708;23.360;2023-11-22T10:03:00;94966.84;;;11.88;70.52
36192;BME280;22233;42.708;23.360;2023-11-22T10:05:26;94972.28;;;11.88;70.90
36192;BME280;22233;42.708;23.360;2023-11-22T10:07:54;94972.50;;;11.83;70.51
36192;BME280;22233;42.708;23.360;2023-11-22T10:10:20;94974.00;;;11.21;71.54
36192;BME280;22233;42.708;23.360;2023-11-22T10:12:47;94968.38;;;11.77;70.94
36192;BME280;22233;42.708;23.360;2023-11-22T10:15:15;94977.22;;;11.95;70.35
36192;BME280;22233;42.708;23.360;2023-11-22T10:17:55;94954.34;;;11.96;71.08
36192;BME280;22233;42.708;23.360;2023-11-22T10:20:39;94934.38;;;11.92;70.12
36192;BME280;22233;42.708;23.360;2023-11-22T10:23:09;94965.22;;;12.17;69.74
36192;BME280;22233;42.708;23.360;2023-11-22T10:25:36;94967.19;;;12.29;67.75
36192;BME280;22233;42.708;23.360;2023-11-22T10:28:01;94977.66;;;12.39;67.70
36192;BME280;22233;42.708;23.360;2023-11-22T10:30:27;94962.88;;;12.28;67.82
36192;BME280;22233;42.708;23.360;2023-11-22T10:32:53;94979.22;;;12.61;68.03
36192;BME280;22233;42.708;23.360;2023-11-22T10:35:21;94962.69;;;12.78;67.51
36192;BME280;22233;42.708;23.360;2023-11-22T10:37:47;94953.13;;;12.72;67.93
36192;BME280;22233;42.708;23.360;2023-11-22T10:40:14;94974.31;;;12.88;66.73
36192;BME280;22233;42.708;23.360;2023-11-22T10:42:41;94967.59;;;12.39;68.36
36192;BME280;22233;42.708;23.360;2023-11-22T10:45:12;94979.31;;;12.52;67.94
36192;BME280;22233;42.708;23.360;2023-11-22T10:47:38;94978.72;;;12.47;68.04
36192;BME280;22233;42.708;23.360;2023-11-22T10:50:05;94993.22;;;12.38;68.00
36192;BME280;22233;42.708;23.360;2023-11-22T10:52:35;94988.47;;;12.14;69.35
36192;BME280;22233;42.708;23.360;2023-11-22T10:55:03;94985.59;;;12.32;68.98
36192;BME280;22233;42.708;23.360;2023-11-22T10:57:31;94966.00;;;12.51;68.11
36192;BME280;22233;42.708;23.360;2023-11-22T11:00:00;94979.53;;;12.59;68.43
36192;BME280;22233;42.708;23.360;2023-11-22T11:02:32;94962.56;;;12.75;68.24
36192;BME280;22233;42.708;23.360;2023-11-22T11:05:03;94952.44;;;12.75;68.38
36192;BME280;22233;42.708;23.360;2023-11-22T11:07:39;94974.63;;;12.86;68.43
36192;BME280;22233;42.708;23.360;2023-11-22T11:10:08;94971.34;;;12.93;68.25
36192;BME280;22233;42.708;23.360;2023-11-22T11:12:35;94981.53;;;12.84;68.93
36192;BME280;22233;42.708;23.360;2023-11-22T11:15:01;94968.75;;;13.09;67.48
36192;BME280;22233;42.708;23.360;2023-11-22T11:17:27;94971.72;;;13.16;67.77
36192;BME280;22233;42.708;23.360;2023-11-22T11:19:52;94971.81;;;13.07;67.45
36192;BME280;22233;42.708;23.360;2023-11-22T11:22:17;94969.44;;;13.18;66.65
36192;BME280;22233;42.708;23.360;2023-11-22T11:24:47;94968.94;;;12.91;67.54
36192;BME280;22233;42.708;23.360;2023-11-22T11:27:13;94978.41;;;13.06;66.97
36192;BME280;22233;42.708;23.360;2023-11-22T11:29:40;94970.00;;;13.24;67.33
36192;BME280;22233;42.708;23.360;2023-11-22T11:32:32;94976.06;;;13.29;66.80
36192;BME280;22233;42.708;23.360;2023-11-22T11:34:58;94982.09;;;12.77;68.32
36192;BME280;22233;42.708;23.360;2023-11-22T11:37:29;94962.72;;;13.03;67.81
36192;BME280;22233;42.708;23.360;2023-11-22T11:39:54;94971.63;;;12.67;68.60
36192;BME280;22233;42.708;23.360;2023-11-22T11:42:20;94959.97;;;12.78;68.96
36192;BME280;22233;42.708;23.360;2023-11-22T11:45:05;94966.94;;;13.01;67.91
36192;BME280;22233;42.708;23.360;2023-11-22T11:47:35;94971.22;;;12.89;68.85
36192;BME280;22233;42.708;23.360;2023-11-22T11:50:00;94981.97;;;12.73;69.70
36192;BME280;22233;42.708;23.360;2023-11-22T11:52:26;94984.47;;;12.66;70.27
36192;BME280;22233;42.708;23.360;2023-11-22T11:54:52;94986.47;;;12.57;70.56
36192;BME280;22233;42.708;23.360;2023-11-22T11:57:17;94977.53;;;12.69;70.78
36192;BME280;22233;42.708;23.360;2023-11-22T11:59:43;94976.88;;;12.72;70.46
36192;BME280;22233;42.708;23.360;2023-11-22T12:02:10;94979.53;;;12.93;70.31
36192;BME280;22233;42.708;23.360;2023-11-22T12:04:35;94981.00;;;12.90;70.06
36192;BME280;22233;42.708;23.360;2023-11-22T12:07:01;94973.34;;;12.84;69.35
36192;BME280;22233;42.708;23.360;2023-11-22T12:09:27;94953.81;;;12.69;69.83
36192;BME280;22233;42.708;23.360;2023-11-22T12:11:55;94986.81;;;13.01;69.79
36192;BME280;22233;42.708;23.360;2023-11-22T12:14:23;94992.03;;;12.94;69.80
36192;BME280;22233;42.708;23.360;2023-11-22T12:16:51;95006.88;;;12.51;71.50
36192;BME280;22233;42.708;23.360;2023-11-22T12:19:27;95001.09;;;11.68;73.92
36192;BME280;22233;42.708;23.360;2023-11-22T12:21:53;95011.22;;;11.89;74.43
36192;BME280;22233;42.708;23.360;2023-11-22T12:24:19;95007.97;;;12.16;73.30
36192;BME280;22233;42.708;23.360;2023-11-22T12:26:46;95001.13;;;12.31;72.58
36192;BME280;22233;42.708;23.360;2023-11-22T12:29:12;95003.97;;;12.56;72.62
36192;BME280;22233;42.708;23.360;2023-11-22T12:31:49;94986.47;;;12.57;71.31
36192;BME280;22233;42.708;23.360;2023-11-22T12:34:23;95007.19;;;12.70;71.55
36192;BME280;22233;42.708;23.360;2023-11-22T12:36:56;95010.81;;;12.74;71.92
36192;BME280;22233;42.708;23.360;2023-11-22T12:39:21;95001.75;;;12.83;71.15
36192;BME280;22233;42.708;23.360;2023-11-22T12:41:49;95016.47;;;12.36;72.61
36192;BME280;22233;42.708;23.360;2023-11-22T12:44:18;95007.63;;;12.39;72.99
36192;BME280;22233;42.708;23.360;2023-11-22T12:47:02;95014.63;;;12.61;72.28
36192;BME280;22233;42.708;23.360;2023-11-22T12:49:43;95016.06;;;12.79;72.14